sensor_id;sensor_type;location;lat;lon;timestamp;temperature;humidity
10911;DHT22;5508;49.150;11.030;2022-09-09T00:03:05;10.80;99.90
10911;DHT22;5508;49.150;11.030;2022-09-09T00:06:30;10.80;99.90
10911;DHT22;5508;49.150;11.030;2022-09-09T00:09:39;10.80;99.90
10911;DHT22;5508;49.150;11.030;2022-09-09T00:16:22;10.80;99.90
10911;DHT22;5508;49.150;11.030;2022-09-09T00:19:34;10.80;99.90
10911;DHT22;5508;49.150;11.030;2022-09-09T00:22:40;10.70;99.90
10911;DHT22;5508;49.150;11.030;2022-09-09T00:26:02;10.80;99.90
10911;DHT22;5508;49.150;11.030;2022-09-09T00:32:30;10.70;99.90
10911;DHT22;5508;49.150;11.030;2022-09-09T00:35:47;10.60;99.90
10911;DHT22;5508;49.150;11.030;2022-09-09T00:38:52;10.60;99.90
10911;DHT22;5508;49.150;11.030;2022-09-09T00:42:12;10.60;99.90
10911;DHT22;5508;49.150;11.030;2022-09-09T00:48:45;10.60;99.90
10911;DHT22;5508;49.150;11.030;2022-09-09T00:52:03;10.50;99.90
10911;DHT22;5508;49.150;11.030;2022-09-09T00:58:32;10.50;99.90
10911;DHT22;5508;49.150;11.030;2022-09-09T01:01:33;10.60;99.90
10911;DHT22;5508;49.150;11.030;2022-09-09T01:04:36;10.60;99.90
10911;DHT22;5508;49.150;11.030;2022-09-09T01:07:37;10.70;99.90
10911;DHT22;5508;49.150;11.030;2022-09-09T01:10:51;10.80;99.90
10911;DHT22;5508;49.150;11.030;2022-09-09T01:17:54;10.80;99.90
10911;DHT22;5508;49.150;11.030;2022-09-09T01:21:30;10.80;99.90
10911;DHT22;5508;49.150;11.030;2022-09-09T01:24:42;10.80;99.90
10911;DHT22;5508;49.150;11.030;2022-09-09T01:27:49;10.80;99.90
10911;DHT22;5508;49.150;11.030;2022-09-09T01:30:51;10.70;99.90
10911;DHT22;5508;49.150;11.030;2022-09-09T01:33:51;10.80;99.90
10911;DHT22;5508;49.150;11.030;2022-09-09T01:37:03;10.90;99.90
10911;DHT22;5508;49.150;11.030;2022-09-09T01:40:06;11.00;99.90
10911;DHT22;5508;49.150;11.030;2022-09-09T01:43:07;11.00;99.90
10911;DHT22;5508;49.150;11.030;2022-09-09T01:46:08;11.10;99.90
10911;DHT22;5508;49.150;11.030;2022-09-09T01:49:09;11.00;99.90
10911;DHT22;5508;49.150;11.030;2022-09-09T01:52:09;11.10;99.90
10911;DHT22;5508;49.150;11.030;2022-09-09T01:55:10;11.10;99.90
10911;DHT22;5508;49.150;11.030;2022-09-09T01:59:32;11.00;99.90
10911;DHT22;5508;49.150;11.030;2022-09-09T02:05:23;11.20;99.90
10911;DHT22;5508;49.150;11.030;2022-09-09T02:08:36;11.30;99.90
10911;DHT22;5508;49.150;11.030;2022-09-09T02:11:41;11.30;99.90
10911;DHT22;5508;49.150;11.030;2022-09-09T02:14:50;11.40;99.90
10911;DHT22;5508;49.150;11.030;2022-09-09T02:17:52;11.40;99.90
10911;DHT22;5508;49.150;11.030;2022-09-09T02:20:56;11.40;99.90
10911;DHT22;5508;49.150;11.030;2022-09-09T02:24:00;11.40;99.90
10911;DHT22;5508;49.150;11.030;2022-09-09T02:27:07;11.50;99.90
10911;DHT22;5508;49.150;11.030;2022-09-09T02:30:09;11.40;99.90
10911;DHT22;5508;49.150;11.030;2022-09-09T02:33:11;11.30;99.90
10911;DHT22;5508;49.150;11.030;2022-09-09T02:36:14;11.40;99.90
10911;DHT22;5508;49.150;11.030;2022-09-09T02:39:16;11.30;99.90
10911;DHT22;5508;49.150;11.030;2022-09-09T02:42:17;11.40;99.90
10911;DHT22;5508;49.150;11.030;2022-09-09T02:45:20;11.30;99.90
10911;DHT22;5508;49.150;11.030;2022-09-09T02:48:30;11.20;99.90
10911;DHT22;5508;49.150;11.030;2022-09-09T02:51:56;11.10;99.90
10911;DHT22;5508;49.150;11.030;2022-09-09T02:55:11;11.00;99.90
10911;DHT22;5508;49.150;11.030;2022-09-09T02:58:17;10.90;99.90
10911;DHT22;5508;49.150;11.030;2022-09-09T03:01:18;10.80;99.90
10911;DHT22;5508;49.150;11.030;2022-09-09T03:04:19;10.80;99.90
10911;DHT22;5508;49.150;11.030;2022-09-09T03:07:21;10.90;99.90
10911;DHT22;5508;49.150;11.030;2022-09-09T03:10:21;10.90;99.90
10911;DHT22;5508;49.150;11.030;2022-09-09T03:13:22;11.00;99.90
10911;DHT22;5508;49.150;11.030;2022-09-09T03:16:23;11.00;99.90
10911;DHT22;5508;49.150;11.030;2022-09-09T03:19:24;11.00;99.90
10911;DHT22;5508;49.150;11.030;2022-09-09T03:22:25;11.00;99.90
10911;DHT22;5508;49.150;11.030;2022-09-09T03:25:25;11.10;99.90
10911;DHT22;5508;49.150;11.030;2022-09-09T03:28:26;11.20;99.90
10911;DHT22;5508;49.150;11.030;2022-09-09T03:31:31;11.20;99.90
10911;DHT22;5508;49.150;11.030;2022-09-09T03:34:31;11.20;99.90
10911;DHT22;5508;49.150;11.030;2022-09-09T03:37:32;11.30;99.90
10911;DHT22;5508;49.150;11.030;2022-09-09T03:40:32;11.20;99.90
10911;DHT22;5508;49.150;11.030;2022-09-09T03:43:33;11.30;99.90
10911;DHT22;5508;49.150;11.030;2022-09-09T03:46:34;11.40;99.90
10911;DHT22;5508;49.150;11.030;2022-09-09T03:49:35;11.40;99.90
10911;DHT22;5508;49.150;11.030;2022-09-09T03:52:40;11.40;99.90
10911;DHT22;5508;49.150;11.030;2022-09-09T03:55:48;11.50;99.90
10911;DHT22;5508;49.150;11.030;2022-09-09T03:58:50;11.50;99.90
10911;DHT22;5508;49.150;11.030;2022-09-09T04:01:50;11.50;99.90
10911;DHT22;5508;49.150;11.030;2022-09-09T04:04:51;11.50;99.90
10911;DHT22;5508;49.150;11.030;2022-09-09T04:07:52;11.50;99.90
10911;DHT22;5508;49.150;11.030;2022-09-09T04:10:53;11.50;99.90
10911;DHT22;5508;49.150;11.030;2022-09-09T04:13:54;11.40;99.90
10911;DHT22;5508;49.150;11.030;2022-09-09T04:16:55;11.30;99.90
10911;DHT22;5508;49.150;11.030;2022-09-09T04:19:56;11.20;99.90
10911;DHT22;5508;49.150;11.030;2022-09-09T04:22:57;11.10;99.90
10911;DHT22;5508;49.150;11.030;2022-09-09T04:25:59;11.10;99.90
10911;DHT22;5508;49.150;11.030;2022-09-09T04:28:59;11.00;99.90
10911;DHT22;5508;49.150;11.030;2022-09-09T04:32:00;11.00;99.90
10911;DHT22;5508;49.150;11.030;2022-09-09T04:35:01;11.00;99.90
10911;DHT22;5508;49.150;11.030;2022-09-09T04:38:02;10.90;99.90
10911;DHT22;5508;49.150;11.030;2022-09-09T04:41:03;10.90;99.90
10911;DHT22;5508;49.150;11.030;2022-09-09T04:44:04;10.90;99.90
10911;DHT22;5508;49.150;11.030;2022-09-09T04:47:05;11.00;99.90
10911;DHT22;5508;49.150;11.030;2022-09-09T04:50:06;11.00;99.90
10911;DHT22;5508;49.150;11.030;2022-09-09T04:53:07;11.10;99.90
10911;DHT22;5508;49.150;11.030;2022-09-09T04:56:14;11.20;99.90
10911;DHT22;5508;49.150;11.030;2022-09-09T04:59:15;11.20;99.90
10911;DHT22;5508;49.150;11.030;2022-09-09T05:02:15;11.20;99.90
10911;DHT22;5508;49.150;11.030;2022-09-09T05:05:16;11.20;99.90
10911;DHT22;5508;49.150;11.030;2022-09-09T05:08:16;11.30;99.90
10911;DHT22;5508;49.150;11.030;2022-09-09T05:11:22;11.40;99.90
10911;DHT22;5508;49.150;11.030;2022-09-09T05:14:24;11.60;99.90
10911;DHT22;5508;49.150;11.030;2022-09-09T05:17:24;11.70;99.90
10911;DHT22;5508;49.150;11.030;2022-09-09T05:20:26;11.80;99.90
10911;DHT22;5508;49.150;11.030;2022-09-09T05:23:26;11.90;99.90
10911;DHT22;5508;49.150;11.030;2022-09-09T05:26:27;12.00;99.90
10911;DHT22;5508;49.150;11.030;2022-09-09T05:29:29;12.20;99.90
10911;DHT22;5508;49.150;11.030;2022-09-09T05:32:30;12.30;99.90
10911;DHT22;5508;49.150;11.030;2022-09-09T05:35:33;12.50;99.90
10911;DHT22;5508;49.150;11.030;2022-09-09T05:38:34;12.60;99.90
10911;DHT22;5508;49.150;11.030;2022-09-09T05:41:36;12.70;99.90
10911;DHT22;5508;49.150;11.030;2022-09-09T05:44:36;12.70;99.90
10911;DHT22;5508;49.150;11.030;2022-09-09T05:47:37;12.70;99.90
10911;DHT22;5508;49.150;11.030;2022-09-09T05:50:38;12.70;99.90
10911;DHT22;5508;49.150;11.030;2022-09-09T05:53:39;12.80;99.90
10911;DHT22;5508;49.150;11.030;2022-09-09T05:56:39;12.70;99.90
10911;DHT22;5508;49.150;11.030;2022-09-09T05:59:40;12.70;99.90
10911;DHT22;5508;49.150;11.030;2022-09-09T06:02:40;12.70;99.90
10911;DHT22;5508;49.150;11.030;2022-09-09T06:05:41;12.80;99.90
10911;DHT22;5508;49.150;11.030;2022-09-09T06:08:43;12.80;99.90
10911;DHT22;5508;49.150;11.030;2022-09-09T06:11:44;12.80;99.90
10911;DHT22;5508;49.150;11.030;2022-09-09T06:14:45;12.90;99.90
10911;DHT22;5508;49.150;11.030;2022-09-09T06:17:46;13.00;99.90
10911;DHT22;5508;49.150;11.030;2022-09-09T06:20:58;13.10;99.90
10911;DHT22;5508;49.150;11.030;2022-09-09T06:24:00;13.40;99.90
10911;DHT22;5508;49.150;11.030;2022-09-09T06:27:00;13.50;99.90
10911;DHT22;5508;49.150;11.030;2022-09-09T06:30:01;13.60;99.90
10911;DHT22;5508;49.150;11.030;2022-09-09T06:33:03;13.70;99.90
10911;DHT22;5508;49.150;11.030;2022-09-09T06:36:05;13.70;99.90
10911;DHT22;5508;49.150;11.030;2022-09-09T06:39:06;13.70;99.90
10911;DHT22;5508;49.150;11.030;2022-09-09T06:42:07;13.70;99.90
10911;DHT22;5508;49.150;11.030;2022-09-09T06:45:10;13.70;99.90
10911;DHT22;5508;49.150;11.030;2022-09-09T06:48:10;13.90;99.90
10911;DHT22;5508;49.150;11.030;2022-09-09T06:51:21;14.10;99.90
10911;DHT22;5508;49.150;11.030;2022-09-09T06:54:22;14.00;99.90
10911;DHT22;5508;49.150;11.030;2022-09-09T06:57:24;14.00;99.90
10911;DHT22;5508;49.150;11.030;2022-09-09T07:00:24;14.00;99.90
10911;DHT22;5508;49.150;11.030;2022-09-09T07:03:25;14.10;99.90
10911;DHT22;5508;49.150;11.030;2022-09-09T07:06:28;14.10;99.90
10911;DHT22;5508;49.150;11.030;2022-09-09T07:09:29;14.10;99.90
10911;DHT22;5508;49.150;11.030;2022-09-09T07:12:29;14.00;99.90
10911;DHT22;5508;49.150;11.030;2022-09-09T07:15:30;14.00;99.90
10911;DHT22;5508;49.150;11.030;2022-09-09T07:18:33;14.20;99.90
10911;DHT22;5508;49.150;11.030;2022-09-09T07:21:34;14.50;99.90
10911;DHT22;5508;49.150;11.030;2022-09-09T07:24:35;14.60;99.90
10911;DHT22;5508;49.150;11.030;2022-09-09T07:27:36;14.60;99.90
10911;DHT22;5508;49.150;11.030;2022-09-09T07:30:36;14.60;99.90
10911;DHT22;5508;49.150;11.030;2022-09-09T07:33:37;14.50;99.90
10911;DHT22;5508;49.150;11.030;2022-09-09T07:36:39;14.60;99.90
10911;DHT22;5508;49.150;11.030;2022-09-09T07:39:40;15.00;99.90
10911;DHT22;5508;49.150;11.030;2022-09-09T07:42:41;15.20;98.80
10911;DHT22;5508;49.150;11.030;2022-09-09T07:45:41;15.40;97.30
10911;DHT22;5508;49.150;11.030;2022-09-09T07:48:46;15.50;98.40
10911;DHT22;5508;49.150;11.030;2022-09-09T07:51:50;15.90;95.60
10911;DHT22;5508;49.150;11.030;2022-09-09T07:54:51;16.50;94.00
10911;DHT22;5508;49.150;11.030;2022-09-09T07:57:53;16.80;89.40
10911;DHT22;5508;49.150;11.030;2022-09-09T08:00:53;16.90;88.90
10911;DHT22;5508;49.150;11.030;2022-09-09T08:04:00;16.80;87.20
10911;DHT22;5508;49.150;11.030;2022-09-09T08:07:01;16.70;86.30
10911;DHT22;5508;49.150;11.030;2022-09-09T08:10:04;16.70;85.60
10911;DHT22;5508;49.150;11.030;2022-09-09T08:13:04;16.90;87.00
10911;DHT22;5508;49.150;11.030;2022-09-09T08:16:14;17.30;87.60
10911;DHT22;5508;49.150;11.030;2022-09-09T08:19:15;17.50;84.10
10911;DHT22;5508;49.150;11.030;2022-09-09T08:22:16;17.80;84.30
10911;DHT22;5508;49.150;11.030;2022-09-09T08:25:17;17.50;83.90
10911;DHT22;5508;49.150;11.030;2022-09-09T08:28:17;17.70;84.00
10911;DHT22;5508;49.150;11.030;2022-09-09T08:31:53;17.90;82.80
10911;DHT22;5508;49.150;11.030;2022-09-09T08:34:54;18.30;76.50
10911;DHT22;5508;49.150;11.030;2022-09-09T08:37:55;18.10;77.20
10911;DHT22;5508;49.150;11.030;2022-09-09T08:41:04;18.50;75.60
10911;DHT22;5508;49.150;11.030;2022-09-09T08:50:36;18.60;75.00
10911;DHT22;5508;49.150;11.030;2022-09-09T08:53:43;19.20;73.90
10911;DHT22;5508;49.150;11.030;2022-09-09T08:56:47;19.20;72.50
10911;DHT22;5508;49.150;11.030;2022-09-09T08:59:50;19.00;76.10
10911;DHT22;5508;49.150;11.030;2022-09-09T09:06:16;19.80;73.10
10911;DHT22;5508;49.150;11.030;2022-09-09T09:09:42;20.20;72.30
10911;DHT22;5508;49.150;11.030;2022-09-09T09:12:47;20.10;70.50
10911;DHT22;5508;49.150;11.030;2022-09-09T09:15:54;20.20;68.00
10911;DHT22;5508;49.150;11.030;2022-09-09T09:18:56;20.20;71.10
10911;DHT22;5508;49.150;11.030;2022-09-09T09:22:14;20.30;68.70
10911;DHT22;5508;49.150;11.030;2022-09-09T09:25:35;20.40;66.90
10911;DHT22;5508;49.150;11.030;2022-09-09T09:28:42;20.40;69.30
10911;DHT22;5508;49.150;11.030;2022-09-09T09:31:45;20.60;71.80
10911;DHT22;5508;49.150;11.030;2022-09-09T09:34:51;21.20;68.20
10911;DHT22;5508;49.150;11.030;2022-09-09T09:37:56;21.70;64.70
10911;DHT22;5508;49.150;11.030;2022-09-09T09:40:58;21.20;64.50
10911;DHT22;5508;49.150;11.030;2022-09-09T09:43:59;20.80;63.30
10911;DHT22;5508;49.150;11.030;2022-09-09T09:47:12;20.70;61.00
10911;DHT22;5508;49.150;11.030;2022-09-09T09:50:18;21.00;65.80
10911;DHT22;5508;49.150;11.030;2022-09-09T09:53:23;21.00;64.10
10911;DHT22;5508;49.150;11.030;2022-09-09T09:56:28;20.70;60.70
10911;DHT22;5508;49.150;11.030;2022-09-09T09:59:33;21.00;63.50
10911;DHT22;5508;49.150;11.030;2022-09-09T10:02:39;21.40;62.40
10911;DHT22;5508;49.150;11.030;2022-09-09T10:05:45;21.20;57.90
10911;DHT22;5508;49.150;11.030;2022-09-09T10:08:46;21.30;57.60
10911;DHT22;5508;49.150;11.030;2022-09-09T10:44:06;20.60;60.70
10911;DHT22;5508;49.150;11.030;2022-09-09T10:47:38;20.80;62.10
10911;DHT22;5508;49.150;11.030;2022-09-09T10:50:50;20.70;60.80
10911;DHT22;5508;49.150;11.030;2022-09-09T10:54:00;21.40;59.60
10911;DHT22;5508;49.150;11.030;2022-09-09T10:57:13;21.10;58.50
10911;DHT22;5508;49.150;11.030;2022-09-09T11:00:22;21.60;60.70
10911;DHT22;5508;49.150;11.030;2022-09-09T11:03:28;21.70;56.60
10911;DHT22;5508;49.150;11.030;2022-09-09T11:06:41;22.30;58.00
10911;DHT22;5508;49.150;11.030;2022-09-09T11:09:50;22.50;58.90
10911;DHT22;5508;49.150;11.030;2022-09-09T11:12:59;22.70;56.30
10911;DHT22;5508;49.150;11.030;2022-09-09T11:19:41;23.10;54.60
10911;DHT22;5508;49.150;11.030;2022-09-09T11:22:48;23.60;53.90
10911;DHT22;5508;49.150;11.030;2022-09-09T11:25:55;24.00;53.00
10911;DHT22;5508;49.150;11.030;2022-09-09T11:38:50;23.60;51.90
10911;DHT22;5508;49.150;11.030;2022-09-09T11:41:52;23.20;53.30
10911;DHT22;5508;49.150;11.030;2022-09-09T11:44:52;22.90;55.30
10911;DHT22;5508;49.150;11.030;2022-09-09T11:47:57;22.00;52.70
10911;DHT22;5508;49.150;11.030;2022-09-09T11:54:46;21.80;54.20
10911;DHT22;5508;49.150;11.030;2022-09-09T11:57:47;21.80;54.90
10911;DHT22;5508;49.150;11.030;2022-09-09T12:00:48;22.00;54.60
10911;DHT22;5508;49.150;11.030;2022-09-09T12:03:54;21.60;57.30
10911;DHT22;5508;49.150;11.030;2022-09-09T12:07:05;22.10;57.20
10911;DHT22;5508;49.150;11.030;2022-09-09T12:10:29;22.20;56.80
10911;DHT22;5508;49.150;11.030;2022-09-09T12:13:30;22.60;54.20
10911;DHT22;5508;49.150;11.030;2022-09-09T12:16:34;22.70;55.00
10911;DHT22;5508;49.150;11.030;2022-09-09T12:19:35;22.40;53.90
10911;DHT22;5508;49.150;11.030;2022-09-09T12:32:42;22.30;56.80
10911;DHT22;5508;49.150;11.030;2022-09-09T12:35:50;21.90;60.00
10911;DHT22;5508;49.150;11.030;2022-09-09T12:38:53;21.40;62.60
10911;DHT22;5508;49.150;11.030;2022-09-09T12:41:55;21.70;61.80
10911;DHT22;5508;49.150;11.030;2022-09-09T12:45:03;21.60;60.80
10911;DHT22;5508;49.150;11.030;2022-09-09T12:48:18;21.60;60.20
10911;DHT22;5508;49.150;11.030;2022-09-09T12:51:33;21.80;58.90
10911;DHT22;5508;49.150;11.030;2022-09-09T12:54:35;21.90;58.70
10911;DHT22;5508;49.150;11.030;2022-09-09T12:57:38;21.80;59.00
10911;DHT22;5508;49.150;11.030;2022-09-09T13:00:49;21.50;56.30
10911;DHT22;5508;49.150;11.030;2022-09-09T13:03:51;21.50;61.90
10911;DHT22;5508;49.150;11.030;2022-09-09T13:06:52;21.60;62.90
10911;DHT22;5508;49.150;11.030;2022-09-09T13:09:53;21.50;59.70
10911;DHT22;5508;49.150;11.030;2022-09-09T13:12:54;21.50;63.40
10911;DHT22;5508;49.150;11.030;2022-09-09T13:15:57;21.80;59.40
10911;DHT22;5508;49.150;11.030;2022-09-09T13:18:59;21.50;59.30
10911;DHT22;5508;49.150;11.030;2022-09-09T13:22:16;20.80;59.80
10911;DHT22;5508;49.150;11.030;2022-09-09T13:25:30;20.60;62.70
10911;DHT22;5508;49.150;11.030;2022-09-09T13:28:31;20.40;61.80
10911;DHT22;5508;49.150;11.030;2022-09-09T13:31:36;20.40;62.70
10911;DHT22;5508;49.150;11.030;2022-09-09T13:34:37;20.00;68.00
10911;DHT22;5508;49.150;11.030;2022-09-09T13:37:38;18.60;82.50
10911;DHT22;5508;49.150;11.030;2022-09-09T13:43:55;17.70;93.10
10911;DHT22;5508;49.150;11.030;2022-09-09T13:47:19;17.70;95.50
10911;DHT22;5508;49.150;11.030;2022-09-09T13:50:24;17.70;93.30
10911;DHT22;5508;49.150;11.030;2022-09-09T13:53:25;18.00;99.90
10911;DHT22;5508;49.150;11.030;2022-09-09T13:56:26;18.30;98.80
10911;DHT22;5508;49.150;11.030;2022-09-09T13:59:27;18.70;99.90
10911;DHT22;5508;49.150;11.030;2022-09-09T14:02:27;18.80;92.90
10911;DHT22;5508;49.150;11.030;2022-09-09T14:05:32;18.90;95.30
10911;DHT22;5508;49.150;11.030;2022-09-09T14:08:34;19.00;96.90
10911;DHT22;5508;49.150;11.030;2022-09-09T14:11:37;19.00;96.20
10911;DHT22;5508;49.150;11.030;2022-09-09T14:14:38;19.10;99.90
10911;DHT22;5508;49.150;11.030;2022-09-09T14:17:39;19.20;99.90
10911;DHT22;5508;49.150;11.030;2022-09-09T14:20:39;19.10;99.10
10911;DHT22;5508;49.150;11.030;2022-09-09T14:23:40;19.10;98.70
10911;DHT22;5508;49.150;11.030;2022-09-09T14:26:41;19.30;96.50
10911;DHT22;5508;49.150;11.030;2022-09-09T14:29:41;19.40;87.10
10911;DHT22;5508;49.150;11.030;2022-09-09T14:32:43;19.10;82.80
10911;DHT22;5508;49.150;11.030;2022-09-09T14:35:44;19.10;81.80
10911;DHT22;5508;49.150;11.030;2022-09-09T14:38:44;19.10;79.10
10911;DHT22;5508;49.150;11.030;2022-09-09T14:41:45;18.90;74.50
10911;DHT22;5508;49.150;11.030;2022-09-09T14:44:46;18.70;75.90
10911;DHT22;5508;49.150;11.030;2022-09-09T14:47:46;18.70;77.60
10911;DHT22;5508;49.150;11.030;2022-09-09T14:50:47;18.60;75.80
10911;DHT22;5508;49.150;11.030;2022-09-09T14:53:51;18.60;73.20
10911;DHT22;5508;49.150;11.030;2022-09-09T14:56:53;18.60;72.20
10911;DHT22;5508;49.150;11.030;2022-09-09T14:59:53;18.70;71.70
10911;DHT22;5508;49.150;11.030;2022-09-09T15:02:55;18.70;67.30
10911;DHT22;5508;49.150;11.030;2022-09-09T15:05:55;18.70;68.60
10911;DHT22;5508;49.150;11.030;2022-09-09T15:08:59;18.70;70.00
10911;DHT22;5508;49.150;11.030;2022-09-09T15:12:00;18.60;67.90
10911;DHT22;5508;49.150;11.030;2022-09-09T15:15:02;18.50;62.60
10911;DHT22;5508;49.150;11.030;2022-09-09T15:18:03;18.30;64.70
10911;DHT22;5508;49.150;11.030;2022-09-09T15:21:04;18.30;59.60
10911;DHT22;5508;49.150;11.030;2022-09-09T15:24:05;18.30;66.10
10911;DHT22;5508;49.150;11.030;2022-09-09T15:27:08;18.30;60.70
10911;DHT22;5508;49.150;11.030;2022-09-09T15:30:09;18.20;65.40
10911;DHT22;5508;49.150;11.030;2022-09-09T15:33:10;18.30;64.10
10911;DHT22;5508;49.150;11.030;2022-09-09T15:36:22;18.40;62.60
10911;DHT22;5508;49.150;11.030;2022-09-09T15:39:23;18.50;63.80
10911;DHT22;5508;49.150;11.030;2022-09-09T15:42:24;18.60;60.80
10911;DHT22;5508;49.150;11.030;2022-09-09T15:45:25;18.70;57.30
10911;DHT22;5508;49.150;11.030;2022-09-09T15:48:30;18.80;58.00
10911;DHT22;5508;49.150;11.030;2022-09-09T15:51:33;18.80;57.00
10911;DHT22;5508;49.150;11.030;2022-09-09T15:54:35;18.80;55.30
10911;DHT22;5508;49.150;11.030;2022-09-09T15:57:36;18.90;58.10
10911;DHT22;5508;49.150;11.030;2022-09-09T16:00:37;18.90;58.80
10911;DHT22;5508;49.150;11.030;2022-09-09T16:03:40;18.70;58.70
10911;DHT22;5508;49.150;11.030;2022-09-09T16:06:46;18.70;57.80
10911;DHT22;5508;49.150;11.030;2022-09-09T16:09:46;18.70;63.40
10911;DHT22;5508;49.150;11.030;2022-09-09T16:12:47;18.60;62.40
10911;DHT22;5508;49.150;11.030;2022-09-09T16:15:54;18.60;61.50
10911;DHT22;5508;49.150;11.030;2022-09-09T16:18:59;18.50;57.00
10911;DHT22;5508;49.150;11.030;2022-09-09T16:22:00;18.50;58.40
10911;DHT22;5508;49.150;11.030;2022-09-09T16:25:01;18.50;59.70
10911;DHT22;5508;49.150;11.030;2022-09-09T16:28:01;18.50;60.10
10911;DHT22;5508;49.150;11.030;2022-09-09T16:31:10;18.50;57.50
10911;DHT22;5508;49.150;11.030;2022-09-09T16:34:11;18.60;56.10
10911;DHT22;5508;49.150;11.030;2022-09-09T16:37:11;18.60;57.40
10911;DHT22;5508;49.150;11.030;2022-09-09T16:40:12;18.60;62.00
10911;DHT22;5508;49.150;11.030;2022-09-09T16:43:12;18.60;57.60
10911;DHT22;5508;49.150;11.030;2022-09-09T16:46:14;18.50;58.30
10911;DHT22;5508;49.150;11.030;2022-09-09T16:49:15;18.40;58.00
10911;DHT22;5508;49.150;11.030;2022-09-09T16:52:16;18.30;61.20
10911;DHT22;5508;49.150;11.030;2022-09-09T16:55:16;18.20;58.50
10911;DHT22;5508;49.150;11.030;2022-09-09T16:58:17;18.10;60.80
10911;DHT22;5508;49.150;11.030;2022-09-09T17:01:18;18.00;59.10
10911;DHT22;5508;49.150;11.030;2022-09-09T17:04:25;17.90;60.50
10911;DHT22;5508;49.150;11.030;2022-09-09T17:07:26;17.70;66.30
10911;DHT22;5508;49.150;11.030;2022-09-09T17:10:27;17.60;65.70
10911;DHT22;5508;49.150;11.030;2022-09-09T17:13:27;17.40;64.70
10911;DHT22;5508;49.150;11.030;2022-09-09T17:16:30;17.30;68.30
10911;DHT22;5508;49.150;11.030;2022-09-09T17:19:31;17.20;69.50
10911;DHT22;5508;49.150;11.030;2022-09-09T17:22:31;17.10;70.40
10911;DHT22;5508;49.150;11.030;2022-09-09T17:25:33;17.10;69.40
10911;DHT22;5508;49.150;11.030;2022-09-09T17:28:35;17.00;71.70
10911;DHT22;5508;49.150;11.030;2022-09-09T17:31:36;16.90;72.40
10911;DHT22;5508;49.150;11.030;2022-09-09T17:34:36;16.90;70.30
10911;DHT22;5508;49.150;11.030;2022-09-09T17:37:38;16.80;73.10
10911;DHT22;5508;49.150;11.030;2022-09-09T17:40:39;16.70;75.40
10911;DHT22;5508;49.150;11.030;2022-09-09T17:43:40;16.70;80.00
10911;DHT22;5508;49.150;11.030;2022-09-09T17:46:43;16.60;82.20
10911;DHT22;5508;49.150;11.030;2022-09-09T17:49:43;16.60;82.70
10911;DHT22;5508;49.150;11.030;2022-09-09T17:52:44;16.50;82.80
10911;DHT22;5508;49.150;11.030;2022-09-09T17:55:44;16.30;83.10
10911;DHT22;5508;49.150;11.030;2022-09-09T17:58:45;16.20;85.00
10911;DHT22;5508;49.150;11.030;2022-09-09T18:01:47;16.00;86.80
10911;DHT22;5508;49.150;11.030;2022-09-09T18:04:49;15.70;88.10
10911;DHT22;5508;49.150;11.030;2022-09-09T18:07:50;15.60;88.70
10911;DHT22;5508;49.150;11.030;2022-09-09T18:10:53;15.40;89.20
10911;DHT22;5508;49.150;11.030;2022-09-09T18:13:59;15.30;90.70
10911;DHT22;5508;49.150;11.030;2022-09-09T18:17:02;15.20;93.90
10911;DHT22;5508;49.150;11.030;2022-09-09T18:20:03;15.20;97.10
10911;DHT22;5508;49.150;11.030;2022-09-09T18:23:04;15.10;96.70
10911;DHT22;5508;49.150;11.030;2022-09-09T18:26:16;15.10;98.00
10911;DHT22;5508;49.150;11.030;2022-09-09T18:29:19;15.20;95.70
10911;DHT22;5508;49.150;11.030;2022-09-09T18:32:20;15.20;96.80
10911;DHT22;5508;49.150;11.030;2022-09-09T18:35:20;15.10;93.40
10911;DHT22;5508;49.150;11.030;2022-09-09T18:38:21;15.00;84.40
10911;DHT22;5508;49.150;11.030;2022-09-09T18:41:33;15.10;78.50
10911;DHT22;5508;49.150;11.030;2022-09-09T18:44:34;15.10;77.60
10911;DHT22;5508;49.150;11.030;2022-09-09T18:47:35;15.10;80.30
10911;DHT22;5508;49.150;11.030;2022-09-09T18:50:36;15.00;78.60
10911;DHT22;5508;49.150;11.030;2022-09-09T18:53:38;15.00;76.90
10911;DHT22;5508;49.150;11.030;2022-09-09T18:56:39;15.10;78.60
10911;DHT22;5508;49.150;11.030;2022-09-09T18:59:40;15.00;74.80
10911;DHT22;5508;49.150;11.030;2022-09-09T19:02:40;15.00;74.40
10911;DHT22;5508;49.150;11.030;2022-09-09T19:05:41;15.00;75.50
10911;DHT22;5508;49.150;11.030;2022-09-09T19:08:43;15.00;78.30
10911;DHT22;5508;49.150;11.030;2022-09-09T19:11:44;15.00;79.20
10911;DHT22;5508;49.150;11.030;2022-09-09T19:14:45;15.00;81.10
10911;DHT22;5508;49.150;11.030;2022-09-09T19:17:45;15.00;83.50
10911;DHT22;5508;49.150;11.030;2022-09-09T19:20:46;14.90;84.10
10911;DHT22;5508;49.150;11.030;2022-09-09T19:27:04;14.90;89.90
10911;DHT22;5508;49.150;11.030;2022-09-09T19:30:06;14.90;91.20
10911;DHT22;5508;49.150;11.030;2022-09-09T19:33:07;14.90;89.30
10911;DHT22;5508;49.150;11.030;2022-09-09T19:36:10;14.80;89.30
10911;DHT22;5508;49.150;11.030;2022-09-09T19:39:11;14.70;89.00
10911;DHT22;5508;49.150;11.030;2022-09-09T19:42:12;14.60;90.80
10911;DHT22;5508;49.150;11.030;2022-09-09T19:45:12;14.60;92.10
10911;DHT22;5508;49.150;11.030;2022-09-09T19:48:13;14.60;92.60
10911;DHT22;5508;49.150;11.030;2022-09-09T19:51:19;14.50;93.00
10911;DHT22;5508;49.150;11.030;2022-09-09T19:54:20;14.40;92.50
10911;DHT22;5508;49.150;11.030;2022-09-09T19:57:22;14.40;92.40
10911;DHT22;5508;49.150;11.030;2022-09-09T20:00:22;14.40;91.60
10911;DHT22;5508;49.150;11.030;2022-09-09T20:03:23;14.40;92.30
10911;DHT22;5508;49.150;11.030;2022-09-09T20:06:28;14.30;93.10
10911;DHT22;5508;49.150;11.030;2022-09-09T20:09:28;14.30;93.10
10911;DHT22;5508;49.150;11.030;2022-09-09T20:12:29;14.20;93.40
10911;DHT22;5508;49.150;11.030;2022-09-09T20:15:30;14.20;94.60
10911;DHT22;5508;49.150;11.030;2022-09-09T20:18:32;14.20;96.20
10911;DHT22;5508;49.150;11.030;2022-09-09T20:21:36;14.20;97.10
10911;DHT22;5508;49.150;11.030;2022-09-09T20:24:37;14.10;96.80
10911;DHT22;5508;49.150;11.030;2022-09-09T20:27:38;14.00;96.20
10911;DHT22;5508;49.150;11.030;2022-09-09T20:30:38;14.00;95.00
10911;DHT22;5508;49.150;11.030;2022-09-09T20:33:40;13.80;94.40
10911;DHT22;5508;49.150;11.030;2022-09-09T20:36:41;13.90;94.50
10911;DHT22;5508;49.150;11.030;2022-09-09T20:39:42;13.90;94.30
10911;DHT22;5508;49.150;11.030;2022-09-09T20:42:45;13.90;93.70
10911;DHT22;5508;49.150;11.030;2022-09-09T20:45:46;13.70;97.20
10911;DHT22;5508;49.150;11.030;2022-09-09T20:48:47;13.60;96.50
10911;DHT22;5508;49.150;11.030;2022-09-09T20:51:51;13.60;98.50
10911;DHT22;5508;49.150;11.030;2022-09-09T20:54:52;13.50;97.90
10911;DHT22;5508;49.150;11.030;2022-09-09T20:57:53;13.40;98.60